sensor_id;sensor_type;location;lat;lon;timestamp;temperature;humidity
11246;DHT22;59870;50.106;8.580;2023-10-19T00:02:10;15.60;95.40
11246;DHT22;59870;50.106;8.580;2023-10-19T00:04:43;15.90;95.60
11246;DHT22;59870;50.106;8.580;2023-10-19T00:07:13;15.80;95.50
11246;DHT22;59870;50.106;8.580;2023-10-19T00:09:48;15.50;95.60
11246;DHT22;59870;50.106;8.580;2023-10-19T00:13:29;15.70;95.80
11246;DHT22;59870;50.106;8.580;2023-10-19T00:16:01;15.80;95.90
11246;DHT22;59870;50.106;8.580;2023-10-19T00:18:57;15.70;96.20
11246;DHT22;59870;50.106;8.580;2023-10-19T00:21:48;15.40;96.10
11246;DHT22;59870;50.106;8.580;2023-10-19T00:24:28;15.80;96.30
11246;DHT22;59870;50.106;8.580;2023-10-19T00:27:55;15.50;96.00
11246;DHT22;59870;50.106;8.580;2023-10-19T00:30:53;15.90;95.90
11246;DHT22;59870;50.106;8.580;2023-10-19T00:33:32;15.50;95.90
11246;DHT22;59870;50.106;8.580;2023-10-19T00:36:04;15.40;95.80
11246;DHT22;59870;50.106;8.580;2023-10-19T00:38:44;15.80;96.20
11246;DHT22;59870;50.106;8.580;2023-10-19T00:41:25;15.80;96.20
11246;DHT22;59870;50.106;8.580;2023-10-19T00:44:01;15.80;96.20
11246;DHT22;59870;50.106;8.580;2023-10-19T00:46:39;15.80;96.10
11246;DHT22;59870;50.106;8.580;2023-10-19T00:49:13;16.10;96.30
11246;DHT22;59870;50.106;8.580;2023-10-19T00:51:52;16.10;96.50
11246;DHT22;59870;50.106;8.580;2023-10-19T00:54:35;15.40;96.20
11246;DHT22;59870;50.106;8.580;2023-10-19T00:57:07;15.90;96.60
11246;DHT22;59870;50.106;8.580;2023-10-19T00:59:42;15.90;96.50
11246;DHT22;59870;50.106;8.580;2023-10-19T01:02:16;15.90;96.50
11246;DHT22;59870;50.106;8.580;2023-10-19T01:04:55;15.90;96.50
11246;DHT22;59870;50.106;8.580;2023-10-19T01:07:32;15.90;96.50
11246;DHT22;59870;50.106;8.580;2023-10-19T01:10:10;15.90;96.40
11246;DHT22;59870;50.106;8.580;2023-10-19T01:12:47;15.90;96.50
11246;DHT22;59870;50.106;8.580;2023-10-19T01:15:18;15.90;96.50
11246;DHT22;59870;50.106;8.580;2023-10-19T01:18:13;15.90;96.60
11246;DHT22;59870;50.106;8.580;2023-10-19T01:20:59;15.90;96.60
11246;DHT22;59870;50.106;8.580;2023-10-19T01:23:36;15.90;96.70
11246;DHT22;59870;50.106;8.580;2023-10-19T01:26:06;16.20;96.90
11246;DHT22;59870;50.106;8.580;2023-10-19T01:28:38;15.90;96.70
11246;DHT22;59870;50.106;8.580;2023-10-19T01:31:18;15.90;96.70
11246;DHT22;59870;50.106;8.580;2023-10-19T01:33:57;15.90;96.70
11246;DHT22;59870;50.106;8.580;2023-10-19T01:36:25;15.90;96.60
11246;DHT22;59870;50.106;8.580;2023-10-19T01:38:58;16.00;96.60
11246;DHT22;59870;50.106;8.580;2023-10-19T01:41:28;16.40;96.90
11246;DHT22;59870;50.106;8.580;2023-10-19T01:43:59;15.90;96.70
11246;DHT22;59870;50.106;8.580;2023-10-19T01:46:34;15.90;96.70
11246;DHT22;59870;50.106;8.580;2023-10-19T01:49:04;15.90;96.70
11246;DHT22;59870;50.106;8.580;2023-10-19T01:51:34;15.90;96.70
11246;DHT22;59870;50.106;8.580;2023-10-19T01:54:10;15.90;96.80
11246;DHT22;59870;50.106;8.580;2023-10-19T01:56:39;16.20;96.50
11246;DHT22;59870;50.106;8.580;2023-10-19T01:59:10;15.90;96.60
11246;DHT22;59870;50.106;8.580;2023-10-19T02:01:40;15.90;96.60
11246;DHT22;59870;50.106;8.580;2023-10-19T02:04:13;15.90;96.50
11246;DHT22;59870;50.106;8.580;2023-10-19T02:06:42;16.20;96.80
11246;DHT22;59870;50.106;8.580;2023-10-19T02:09:14;15.90;96.70
11246;DHT22;59870;50.106;8.580;2023-10-19T02:11:55;15.90;96.50
11246;DHT22;59870;50.106;8.580;2023-10-19T02:14:28;15.60;96.60
11246;DHT22;59870;50.106;8.580;2023-10-19T02:16:59;15.60;96.40
11246;DHT22;59870;50.106;8.580;2023-10-19T02:19:33;16.00;96.70
11246;DHT22;59870;50.106;8.580;2023-10-19T02:22:09;16.00;96.90
11246;DHT22;59870;50.106;8.580;2023-10-19T02:24:44;16.30;96.70
11246;DHT22;59870;50.106;8.580;2023-10-19T02:27:13;16.00;96.80
11246;DHT22;59870;50.106;8.580;2023-10-19T02:29:57;16.00;96.80
11246;DHT22;59870;50.106;8.580;2023-10-19T02:32:27;16.00;96.80
11246;DHT22;59870;50.106;8.580;2023-10-19T02:34:56;16.00;96.90
11246;DHT22;59870;50.106;8.580;2023-10-19T02:37:25;16.00;97.00
11246;DHT22;59870;50.106;8.580;2023-10-19T02:39:53;16.00;97.00
11246;DHT22;59870;50.106;8.580;2023-10-19T02:42:21;16.00;96.90
11246;DHT22;59870;50.106;8.580;2023-10-19T02:44:50;16.40;96.70
11246;DHT22;59870;50.106;8.580;2023-10-19T02:47:19;16.00;96.50
11246;DHT22;59870;50.106;8.580;2023-10-19T02:49:48;16.10;96.40
11246;DHT22;59870;50.106;8.580;2023-10-19T02:52:20;16.10;96.70
11246;DHT22;59870;50.106;8.580;2023-10-19T02:54:50;16.10;96.50
11246;DHT22;59870;50.106;8.580;2023-10-19T02:57:19;16.00;96.60
11246;DHT22;59870;50.106;8.580;2023-10-19T02:59:52;16.00;96.80
11246;DHT22;59870;50.106;8.580;2023-10-19T03:02:21;16.00;96.80
11246;DHT22;59870;50.106;8.580;2023-10-19T03:04:51;15.60;96.70
11246;DHT22;59870;50.106;8.580;2023-10-19T03:07:21;16.00;97.00
11246;DHT22;59870;50.106;8.580;2023-10-19T03:09:49;16.20;97.10
11246;DHT22;59870;50.106;8.580;2023-10-19T03:12:22;16.00;97.00
11246;DHT22;59870;50.106;8.580;2023-10-19T03:14:55;16.30;97.30
11246;DHT22;59870;50.106;8.580;2023-10-19T03:17:23;16.00;97.20
11246;DHT22;59870;50.106;8.580;2023-10-19T03:19:53;15.70;97.20
11246;DHT22;59870;50.106;8.580;2023-10-19T03:22:21;16.00;97.30
11246;DHT22;59870;50.106;8.580;2023-10-19T03:24:50;16.00;97.30
11246;DHT22;59870;50.106;8.580;2023-10-19T03:27:26;16.00;97.40
11246;DHT22;59870;50.106;8.580;2023-10-19T03:29:54;16.00;97.30
11246;DHT22;59870;50.106;8.580;2023-10-19T03:32:23;16.10;97.40
11246;DHT22;59870;50.106;8.580;2023-10-19T03:34:56;16.10;97.30
11246;DHT22;59870;50.106;8.580;2023-10-19T03:37:26;16.20;97.30
11246;DHT22;59870;50.106;8.580;2023-10-19T03:39:57;16.10;97.30
11246;DHT22;59870;50.106;8.580;2023-10-19T03:42:27;16.10;97.20
11246;DHT22;59870;50.106;8.580;2023-10-19T03:45:00;16.10;97.10
11246;DHT22;59870;50.106;8.580;2023-10-19T03:47:40;16.40;97.30
11246;DHT22;59870;50.106;8.580;2023-10-19T03:50:11;16.10;97.20
11246;DHT22;59870;50.106;8.580;2023-10-19T03:52:43;16.10;97.40
11246;DHT22;59870;50.106;8.580;2023-10-19T03:55:13;16.40;97.50
11246;DHT22;59870;50.106;8.580;2023-10-19T03:57:47;16.30;97.50
11246;DHT22;59870;50.106;8.580;2023-10-19T04:00:21;16.20;97.30
11246;DHT22;59870;50.106;8.580;2023-10-19T04:02:56;16.20;97.30
11246;DHT22;59870;50.106;8.580;2023-10-19T04:05:26;16.40;97.40
11246;DHT22;59870;50.106;8.580;2023-10-19T04:07:56;16.10;97.40
11246;DHT22;59870;50.106;8.580;2023-10-19T04:10:26;15.80;97.10
11246;DHT22;59870;50.106;8.580;2023-10-19T04:13:03;16.50;97.40
11246;DHT22;59870;50.106;8.580;2023-10-19T04:15:31;16.50;97.50
11246;DHT22;59870;50.106;8.580;2023-10-19T04:18:03;16.40;97.50
11246;DHT22;59870;50.106;8.580;2023-10-19T04:20:37;16.20;97.40
11246;DHT22;59870;50.106;8.580;2023-10-19T04:23:22;16.20;97.40
11246;DHT22;59870;50.106;8.580;2023-10-19T04:25:56;16.30;97.40
11246;DHT22;59870;50.106;8.580;2023-10-19T04:28:26;16.30;97.40
11246;DHT22;59870;50.106;8.580;2023-10-19T04:31:12;16.20;97.40
11246;DHT22;59870;50.106;8.580;2023-10-19T04:33:45;16.20;97.50
11246;DHT22;59870;50.106;8.580;2023-10-19T04:36:14;16.20;97.50
11246;DHT22;59870;50.106;8.580;2023-10-19T04:38:45;16.20;97.60
11246;DHT22;59870;50.106;8.580;2023-10-19T04:41:15;16.20;97.60
11246;DHT22;59870;50.106;8.580;2023-10-19T04:43:46;15.90;97.50
11246;DHT22;59870;50.106;8.580;2023-10-19T04:46:19;16.50;97.90
11246;DHT22;59870;50.106;8.580;2023-10-19T04:48:49;16.40;97.90
11246;DHT22;59870;50.106;8.580;2023-10-19T04:51:18;16.10;97.70
11246;DHT22;59870;50.106;8.580;2023-10-19T04:53:50;16.20;97.70
11246;DHT22;59870;50.106;8.580;2023-10-19T04:56:20;16.20;97.80
11246;DHT22;59870;50.106;8.580;2023-10-19T04:58:49;16.30;97.80
11246;DHT22;59870;50.106;8.580;2023-10-19T05:01:21;16.50;98.30
11246;DHT22;59870;50.106;8.580;2023-10-19T05:03:56;16.20;97.90
11246;DHT22;59870;50.106;8.580;2023-10-19T05:06:50;16.40;97.90
11246;DHT22;59870;50.106;8.580;2023-10-19T05:09:57;16.20;97.90
11246;DHT22;59870;50.106;8.580;2023-10-19T05:12:41;16.00;97.60
11246;DHT22;59870;50.106;8.580;2023-10-19T05:16:07;16.20;97.80
11246;DHT22;59870;50.106;8.580;2023-10-19T05:18:36;16.20;97.80
11246;DHT22;59870;50.106;8.580;2023-10-19T05:21:04;16.20;97.80
11246;DHT22;59870;50.106;8.580;2023-10-19T05:23:33;15.90;97.70
11246;DHT22;59870;50.106;8.580;2023-10-19T05:26:03;16.20;97.80
11246;DHT22;59870;50.106;8.580;2023-10-19T05:28:34;16.50;98.20
11246;DHT22;59870;50.106;8.580;2023-10-19T05:31:02;16.50;98.00
11246;DHT22;59870;50.106;8.580;2023-10-19T05:33:32;16.30;97.90
11246;DHT22;59870;50.106;8.580;2023-10-19T05:36:00;16.50;98.00
11246;DHT22;59870;50.106;8.580;2023-10-19T05:38:28;16.30;98.10
11246;DHT22;59870;50.106;8.580;2023-10-19T05:40:57;16.30;98.10
11246;DHT22;59870;50.106;8.580;2023-10-19T05:43:25;16.20;98.20
11246;DHT22;59870;50.106;8.580;2023-10-19T05:45:54;16.20;98.20
11246;DHT22;59870;50.106;8.580;2023-10-19T05:48:21;16.30;98.20
11246;DHT22;59870;50.106;8.580;2023-10-19T05:50:50;16.30;98.30
11246;DHT22;59870;50.106;8.580;2023-10-19T06:09:08;16.30;98.30
11246;DHT22;59870;50.106;8.580;2023-10-19T06:11:37;16.20;98.10
11246;DHT22;59870;50.106;8.580;2023-10-19T06:14:10;16.00;98.00
11246;DHT22;59870;50.106;8.580;2023-10-19T06:17:15;16.00;98.10
11246;DHT22;59870;50.106;8.580;2023-10-19T06:22:10;16.40;98.40
11246;DHT22;59870;50.106;8.580;2023-10-19T06:25:32;16.40;98.40
11246;DHT22;59870;50.106;8.580;2023-10-19T06:31:46;16.10;98.30
11246;DHT22;59870;50.106;8.580;2023-10-19T06:34:17;16.10;98.10
11246;DHT22;59870;50.106;8.580;2023-10-19T06:36:49;16.00;98.30
11246;DHT22;59870;50.106;8.580;2023-10-19T06:48:43;16.40;98.70
11246;DHT22;59870;50.106;8.580;2023-10-19T06:52:13;16.50;98.60
11246;DHT22;59870;50.106;8.580;2023-10-19T06:55:31;16.50;98.60
11246;DHT22;59870;50.106;8.580;2023-10-19T06:58:09;16.10;98.30
11246;DHT22;59870;50.106;8.580;2023-10-19T07:01:38;16.50;98.70
11246;DHT22;59870;50.106;8.580;2023-10-19T07:08:26;16.50;98.80
11246;DHT22;59870;50.106;8.580;2023-10-19T07:11:49;16.20;98.60
11246;DHT22;59870;50.106;8.580;2023-10-19T07:15:10;16.50;98.80
11246;DHT22;59870;50.106;8.580;2023-10-19T07:17:44;16.60;98.90
11246;DHT22;59870;50.106;8.580;2023-10-19T07:20:15;16.60;99.10
11246;DHT22;59870;50.106;8.580;2023-10-19T07:23:03;16.60;99.10
11246;DHT22;59870;50.106;8.580;2023-10-19T07:26:04;16.60;99.10
11246;DHT22;59870;50.106;8.580;2023-10-19T07:28:33;16.60;99.10
11246;DHT22;59870;50.106;8.580;2023-10-19T07:31:06;16.70;99.10
11246;DHT22;59870;50.106;8.580;2023-10-19T07:33:39;16.70;99.20
11246;DHT22;59870;50.106;8.580;2023-10-19T07:36:14;16.70;99.20
11246;DHT22;59870;50.106;8.580;2023-10-19T07:38:41;16.70;99.20
11246;DHT22;59870;50.106;8.580;2023-10-19T07:41:09;16.70;99.20
11246;DHT22;59870;50.106;8.580;2023-10-19T07:43:37;16.80;99.30
11246;DHT22;59870;50.106;8.580;2023-10-19T07:46:05;16.80;99.30
11246;DHT22;59870;50.106;8.580;2023-10-19T07:51:53;16.80;99.30
11246;DHT22;59870;50.106;8.580;2023-10-19T07:54:23;16.90;99.30
11246;DHT22;59870;50.106;8.580;2023-10-19T07:57:56;16.90;99.20
11246;DHT22;59870;50.106;8.580;2023-10-19T08:01:57;16.90;99.30
11246;DHT22;59870;50.106;8.580;2023-10-19T08:04:24;17.20;99.40
11246;DHT22;59870;50.106;8.580;2023-10-19T08:06:57;16.90;99.20
11246;DHT22;59870;50.106;8.580;2023-10-19T08:09:40;16.60;99.20
11246;DHT22;59870;50.106;8.580;2023-10-19T08:12:10;16.60;99.10
11246;DHT22;59870;50.106;8.580;2023-10-19T08:14:47;17.30;99.50
11246;DHT22;59870;50.106;8.580;2023-10-19T08:17:21;17.00;99.50
11246;DHT22;59870;50.106;8.580;2023-10-19T08:20:07;17.00;99.60
11246;DHT22;59870;50.106;8.580;2023-10-19T08:23:03;17.00;99.80
11246;DHT22;59870;50.106;8.580;2023-10-19T08:25:38;17.10;99.50
11246;DHT22;59870;50.106;8.580;2023-10-19T08:28:22;17.40;99.50
11246;DHT22;59870;50.106;8.580;2023-10-19T08:30:50;17.40;99.70
11246;DHT22;59870;50.106;8.580;2023-10-19T08:33:26;17.10;99.70
11246;DHT22;59870;50.106;8.580;2023-10-19T08:35:56;17.20;99.80
11246;DHT22;59870;50.106;8.580;2023-10-19T08:38:36;17.20;99.80
11246;DHT22;59870;50.106;8.580;2023-10-19T08:41:16;17.20;99.80
11246;DHT22;59870;50.106;8.580;2023-10-19T08:43:44;17.20;99.70
11246;DHT22;59870;50.106;8.580;2023-10-19T08:46:31;17.30;99.80
11246;DHT22;59870;50.106;8.580;2023-10-19T08:49:09;17.30;99.70
11246;DHT22;59870;50.106;8.580;2023-10-19T08:52:13;17.30;99.70
11246;DHT22;59870;50.106;8.580;2023-10-19T08:54:55;17.40;99.80
11246;DHT22;59870;50.106;8.580;2023-10-19T08:57:35;17.40;99.70
11246;DHT22;59870;50.106;8.580;2023-10-19T09:00:17;17.40;99.60
11246;DHT22;59870;50.106;8.580;2023-10-19T09:02:54;17.40;99.50
11246;DHT22;59870;50.106;8.580;2023-10-19T09:05:38;17.40;99.50
11246;DHT22;59870;50.106;8.580;2023-10-19T09:08:19;17.40;99.60
11246;DHT22;59870;50.106;8.580;2023-10-19T09:11:02;17.40;99.70
11246;DHT22;59870;50.106;8.580;2023-10-19T09:14:16;17.40;99.80
11246;DHT22;59870;50.106;8.580;2023-10-19T09:17:09;17.60;99.90
11246;DHT22;59870;50.106;8.580;2023-10-19T09:19:43;17.40;99.80
11246;DHT22;59870;50.106;8.580;2023-10-19T09:22:12;17.70;99.90
11246;DHT22;59870;50.106;8.580;2023-10-19T09:24:46;17.50;99.90
11246;DHT22;59870;50.106;8.580;2023-10-19T09:27:17;17.50;99.80
11246;DHT22;59870;50.106;8.580;2023-10-19T09:29:47;17.50;99.90
11246;DHT22;59870;50.106;8.580;2023-10-19T09:32:23;17.50;99.90
11246;DHT22;59870;50.106;8.580;2023-10-19T09:34:52;17.50;99.90
11246;DHT22;59870;50.106;8.580;2023-10-19T09:37:21;17.60;99.90
11246;DHT22;59870;50.106;8.580;2023-10-19T09:39:49;17.80;99.90
11246;DHT22;59870;50.106;8.580;2023-10-19T09:42:21;17.60;99.90
11246;DHT22;59870;50.106;8.580;2023-10-19T09:45:06;17.60;99.90
11246;DHT22;59870;50.106;8.580;2023-10-19T09:48:18;17.70;99.90
11246;DHT22;59870;50.106;8.580;2023-10-19T09:51:18;17.70;99.90
11246;DHT22;59870;50.106;8.580;2023-10-19T09:54:16;17.70;99.90
11246;DHT22;59870;50.106;8.580;2023-10-19T09:58:12;17.70;99.90
11246;DHT22;59870;50.106;8.580;2023-10-19T10:01:07;17.70;99.90
11246;DHT22;59870;50.106;8.580;2023-10-19T10:07:33;17.80;99.90
11246;DHT22;59870;50.106;8.580;2023-10-19T10:10:16;17.80;99.90
11246;DHT22;59870;50.106;8.580;2023-10-19T10:13:58;17.90;99.90
11246;DHT22;59870;50.106;8.580;2023-10-19T10:27:04;18.00;99.90
11246;DHT22;59870;50.106;8.580;2023-10-19T10:29:34;18.30;99.90
11246;DHT22;59870;50.106;8.580;2023-10-19T10:32:03;17.80;99.90
11246;DHT22;59870;50.106;8.580;2023-10-19T10:37:11;18.50;99.90
11246;DHT22;59870;50.106;8.580;2023-10-19T10:39:41;18.30;99.90
11246;DHT22;59870;50.106;8.580;2023-10-19T10:42:13;18.40;99.90
11246;DHT22;59870;50.106;8.580;2023-10-19T10:44:49;18.50;99.90
11246;DHT22;59870;50.106;8.580;2023-10-19T10:57:20;18.80;99.90
11246;DHT22;59870;50.106;8.580;2023-10-19T11:00:22;18.50;99.80
11246;DHT22;59870;50.106;8.580;2023-10-19T11:03:06;19.20;99.90
11246;DHT22;59870;50.106;8.580;2023-10-19T11:05:38;19.00;99.90
11246;DHT22;59870;50.106;8.580;2023-10-19T11:08:58;19.10;99.90
11246;DHT22;59870;50.106;8.580;2023-10-19T11:24:26;19.40;99.30
11246;DHT22;59870;50.106;8.580;2023-10-19T11:27:06;19.10;98.70
11246;DHT22;59870;50.106;8.580;2023-10-19T11:30:05;19.40;99.00
11246;DHT22;59870;50.106;8.580;2023-10-19T11:32:38;19.40;99.10
11246;DHT22;59870;50.106;8.580;2023-10-19T11:35:08;19.50;99.00
11246;DHT22;59870;50.106;8.580;2023-10-19T11:37:52;19.50;98.80
11246;DHT22;59870;50.106;8.580;2023-10-19T11:40:25;19.50;99.00
11246;DHT22;59870;50.106;8.580;2023-10-19T11:42:55;19.20;98.70
11246;DHT22;59870;50.106;8.580;2023-10-19T11:45:29;19.50;98.80
11246;DHT22;59870;50.106;8.580;2023-10-19T11:51:22;19.50;99.10
11246;DHT22;59870;50.106;8.580;2023-10-19T11:53:51;19.30;98.70
11246;DHT22;59870;50.106;8.580;2023-10-19T11:56:20;19.90;98.90
11246;DHT22;59870;50.106;8.580;2023-10-19T11:58:49;19.60;98.80
11246;DHT22;59870;50.106;8.580;2023-10-19T12:01:19;19.90;98.90
11246;DHT22;59870;50.106;8.580;2023-10-19T12:03:48;19.60;98.60
11246;DHT22;59870;50.106;8.580;2023-10-19T12:06:18;19.70;98.60
11246;DHT22;59870;50.106;8.580;2023-10-19T12:08:48;19.70;98.70
11246;DHT22;59870;50.106;8.580;2023-10-19T12:11:16;19.70;98.70
11246;DHT22;59870;50.106;8.580;2023-10-19T12:13:49;19.70;98.60
11246;DHT22;59870;50.106;8.580;2023-10-19T12:16:18;19.70;98.70
11246;DHT22;59870;50.106;8.580;2023-10-19T12:18:48;19.70;99.00
11246;DHT22;59870;50.106;8.580;2023-10-19T12:21:17;19.80;99.20
11246;DHT22;59870;50.106;8.580;2023-10-19T12:23:46;20.00;99.10
11246;DHT22;59870;50.106;8.580;2023-10-19T12:26:19;19.80;99.00
11246;DHT22;59870;50.106;8.580;2023-10-19T12:28:48;19.90;98.80
11246;DHT22;59870;50.106;8.580;2023-10-19T12:31:18;20.20;98.70
11246;DHT22;59870;50.106;8.580;2023-10-19T12:33:47;20.10;98.60
11246;DHT22;59870;50.106;8.580;2023-10-19T12:36:16;19.70;98.60
11246;DHT22;59870;50.106;8.580;2023-10-19T12:38:56;20.00;98.70
11246;DHT22;59870;50.106;8.580;2023-10-19T12:44:50;19.80;98.50
11246;DHT22;59870;50.106;8.580;2023-10-19T12:47:19;20.40;98.70
11246;DHT22;59870;50.106;8.580;2023-10-19T12:49:53;20.20;98.30
11246;DHT22;59870;50.106;8.580;2023-10-19T12:52:24;20.20;98.10
11246;DHT22;59870;50.106;8.580;2023-10-19T12:54:52;20.20;98.00
11246;DHT22;59870;50.106;8.580;2023-10-19T12:57:28;20.20;98.00
11246;DHT22;59870;50.106;8.580;2023-10-19T12:59:57;20.50;98.20
11246;DHT22;59870;50.106;8.580;2023-10-19T13:02:24;20.20;98.10
11246;DHT22;59870;50.106;8.580;2023-10-19T13:04:58;20.20;97.90
11246;DHT22;59870;50.106;8.580;2023-10-19T13:07:27;20.20;98.00
11246;DHT22;59870;50.106;8.580;2023-10-19T13:10:02;20.50;98.20
11246;DHT22;59870;50.106;8.580;2023-10-19T13:12:33;20.20;98.10
11246;DHT22;59870;50.106;8.580;2023-10-19T13:15:28;20.50;98.20
11246;DHT22;59870;50.106;8.580;2023-10-19T13:18:00;20.20;98.40
11246;DHT22;59870;50.106;8.580;2023-10-19T13:20:30;20.20;98.20
11246;DHT22;59870;50.106;8.580;2023-10-19T13:23:07;20.70;98.40
11246;DHT22;59870;50.106;8.580;2023-10-19T13:25:39;20.50;98.60
11246;DHT22;59870;50.106;8.580;2023-10-19T13:28:14;20.30;98.40
11246;DHT22;59870;50.106;8.580;2023-10-19T13:30:46;20.40;98.50
11246;DHT22;59870;50.106;8.580;2023-10-19T13:45:57;20.40;98.60
11246;DHT22;59870;50.106;8.580;2023-10-19T13:48:31;20.50;98.10
11246;DHT22;59870;50.106;8.580;2023-10-19T13:51:02;20.70;98.50
11246;DHT22;59870;50.106;8.580;2023-10-19T13:53:41;20.70;98.60
11246;DHT22;59870;50.106;8.580;2023-10-19T13:56:11;20.80;98.50
11246;DHT22;59870;50.106;8.580;2023-10-19T13:58:39;20.50;98.30
11246;DHT22;59870;50.106;8.580;2023-10-19T14:01:08;20.70;98.50
11246;DHT22;59870;50.106;8.580;2023-10-19T14:03:41;20.50;98.60
11246;DHT22;59870;50.106;8.580;2023-10-19T14:06:15;20.50;98.60
11246;DHT22;59870;50.106;8.580;2023-10-19T14:08:46;20.50;98.50
11246;DHT22;59870;50.106;8.580;2023-10-19T14:11:15;20.50;98.60
11246;DHT22;59870;50.106;8.580;2023-10-19T14:13:43;20.50;98.80
11246;DHT22;59870;50.106;8.580;2023-10-19T14:16:11;20.50;98.80
11246;DHT22;59870;50.106;8.580;2023-10-19T14:18:39;20.40;98.80
11246;DHT22;59870;50.106;8.580;2023-10-19T14:21:32;20.50;98.80
11246;DHT22;59870;50.106;8.580;2023-10-19T14:24:05;20.40;98.90
11246;DHT22;59870;50.106;8.580;2023-10-19T14:26:35;20.40;98.80
11246;DHT22;59870;50.106;8.580;2023-10-19T14:29:06;20.40;98.90
11246;DHT22;59870;50.106;8.580;2023-10-19T14:31:33;20.50;98.90
11246;DHT22;59870;50.106;8.580;2023-10-19T14:34:02;20.40;99.00
11246;DHT22;59870;50.106;8.580;2023-10-19T14:36:55;20.50;99.10
11246;DHT22;59870;50.106;8.580;2023-10-19T14:39:22;20.50;99.20
11246;DHT22;59870;50.106;8.580;2023-10-19T14:41:57;20.50;99.10
11246;DHT22;59870;50.106;8.580;2023-10-19T14:44:24;20.50;99.20
11246;DHT22;59870;50.106;8.580;2023-10-19T14:46:52;20.50;99.20
11246;DHT22;59870;50.106;8.580;2023-10-19T14:49:20;20.50;99.50
11246;DHT22;59870;50.106;8.580;2023-10-19T14:51:48;20.50;99.20
11246;DHT22;59870;50.106;8.580;2023-10-19T14:54:17;20.50;98.90
11246;DHT22;59870;50.106;8.580;2023-10-19T14:56:46;20.50;99.00
11246;DHT22;59870;50.106;8.580;2023-10-19T14:59:15;20.50;99.10
11246;DHT22;59870;50.106;8.580;2023-10-19T15:01:47;20.50;99.00
11246;DHT22;59870;50.106;8.580;2023-10-19T15:04:17;20.40;99.20
11246;DHT22;59870;50.106;8.580;2023-10-19T15:06:46;20.20;98.90
11246;DHT22;59870;50.106;8.580;2023-10-19T15:12:18;20.50;99.20
11246;DHT22;59870;50.106;8.580;2023-10-19T15:14:47;20.90;99.00
11246;DHT22;59870;50.106;8.580;2023-10-19T15:17:16;21.10;99.00
11246;DHT22;59870;50.106;8.580;2023-10-19T15:19:44;20.90;99.10
11246;DHT22;59870;50.106;8.580;2023-10-19T15:22:12;20.70;99.00
11246;DHT22;59870;50.106;8.580;2023-10-19T15:24:41;20.70;98.90
11246;DHT22;59870;50.106;8.580;2023-10-19T15:27:12;20.70;98.90
11246;DHT22;59870;50.106;8.580;2023-10-19T15:29:44;20.80;98.90
11246;DHT22;59870;50.106;8.580;2023-10-19T15:32:13;20.30;98.60
11246;DHT22;59870;50.106;8.580;2023-10-19T15:34:42;20.90;99.10
11246;DHT22;59870;50.106;8.580;2023-10-19T15:37:11;20.60;98.80
11246;DHT22;59870;50.106;8.580;2023-10-19T15:40:06;20.60;98.90
11246;DHT22;59870;50.106;8.580;2023-10-19T15:42:35;20.50;99.40
11246;DHT22;59870;50.106;8.580;2023-10-19T15:45:10;20.80;99.40
11246;DHT22;59870;50.106;8.580;2023-10-19T15:47:55;20.50;99.50
11246;DHT22;59870;50.106;8.580;2023-10-19T15:50:28;20.50;99.70
11246;DHT22;59870;50.106;8.580;2023-10-19T16:21:33;20.30;99.80
11246;DHT22;59870;50.106;8.580;2023-10-19T16:24:01;20.30;99.70
11246;DHT22;59870;50.106;8.580;2023-10-19T16:27:07;20.30;99.90
11246;DHT22;59870;50.106;8.580;2023-10-19T16:30:20;20.30;99.50
11246;DHT22;59870;50.106;8.580;2023-10-19T16:32:51;20.30;99.30
11246;DHT22;59870;50.106;8.580;2023-10-19T16:35:22;20.30;99.30
11246;DHT22;59870;50.106;8.580;2023-10-19T16:37:56;20.30;99.50
11246;DHT22;59870;50.106;8.580;2023-10-19T16:40:26;20.30;99.30
11246;DHT22;59870;50.106;8.580;2023-10-19T16:42:56;20.20;99.20
11246;DHT22;59870;50.106;8.580;2023-10-19T16:45:32;20.60;99.10
11246;DHT22;59870;50.106;8.580;2023-10-19T16:48:10;20.30;99.20
11246;DHT22;59870;50.106;8.580;2023-10-19T16:50:38;20.30;99.30
11246;DHT22;59870;50.106;8.580;2023-10-19T16:53:36;20.20;99.30
11246;DHT22;59870;50.106;8.580;2023-10-19T16:56:07;20.20;99.50
11246;DHT22;59870;50.106;8.580;2023-10-19T16:58:34;20.20;99.40
11246;DHT22;59870;50.106;8.580;2023-10-19T17:01:07;20.50;99.50
11246;DHT22;59870;50.106;8.580;2023-10-19T17:03:39;20.30;99.60
11246;DHT22;59870;50.106;8.580;2023-10-19T17:06:12;20.20;99.60
11246;DHT22;59870;50.106;8.580;2023-10-19T17:08:40;20.20;99.60
11246;DHT22;59870;50.106;8.580;2023-10-19T17:11:08;20.20;99.50
11246;DHT22;59870;50.106;8.580;2023-10-19T17:13:36;20.20;99.70
11246;DHT22;59870;50.106;8.580;2023-10-19T17:16:10;20.20;99.70
11246;DHT22;59870;50.106;8.580;2023-10-19T17:19:04;20.10;99.70
11246;DHT22;59870;50.106;8.580;2023-10-19T17:21:32;20.10;99.70
11246;DHT22;59870;50.106;8.580;2023-10-19T17:24:03;20.10;99.80
11246;DHT22;59870;50.106;8.580;2023-10-19T17:26:31;20.00;99.80
11246;DHT22;59870;50.106;8.580;2023-10-19T17:29:00;20.10;99.80
11246;DHT22;59870;50.106;8.580;2023-10-19T17:31:27;20.20;99.80
11246;DHT22;59870;50.106;8.580;2023-10-19T17:33:56;20.10;99.70
11246;DHT22;59870;50.106;8.580;2023-10-19T17:36:28;20.20;99.80
11246;DHT22;59870;50.106;8.580;2023-10-19T17:39:01;20.10;99.80
11246;DHT22;59870;50.106;8.580;2023-10-19T17:41:29;20.10;99.80
11246;DHT22;59870;50.106;8.580;2023-10-19T17:43:57;20.10;99.80
11246;DHT22;59870;50.106;8.580;2023-10-19T17:46:25;20.10;99.80
11246;DHT22;59870;50.106;8.580;2023-10-19T17:48:53;20.20;99.70
11246;DHT22;59870;50.106;8.580;2023-10-19T17:51:22;20.60;99.90
11246;DHT22;59870;50.106;8.580;2023-10-19T17:53:50;20.50;99.90
11246;DHT22;59870;50.106;8.580;2023-10-19T17:56:21;20.20;99.70
11246;DHT22;59870;50.106;8.580;2023-10-19T17:58:52;20.20;99.80
11246;DHT22;59870;50.106;8.580;2023-10-19T18:01:19;20.20;99.80
11246;DHT22;59870;50.106;8.580;2023-10-19T18:03:47;20.60;99.90
11246;DHT22;59870;50.106;8.580;2023-10-19T18:06:19;20.10;99.80
11246;DHT22;59870;50.106;8.580;2023-10-19T18:08:47;20.40;99.90
11246;DHT22;59870;50.106;8.580;2023-10-19T18:11:16;20.10;99.90
11246;DHT22;59870;50.106;8.580;2023-10-19T18:13:48;20.10;99.90
11246;DHT22;59870;50.106;8.580;2023-10-19T18:16:15;20.20;99.90
11246;DHT22;59870;50.106;8.580;2023-10-19T18:18:43;20.40;99.90
11246;DHT22;59870;50.106;8.580;2023-10-19T18:21:15;20.10;99.90
11246;DHT22;59870;50.106;8.580;2023-10-19T18:23:45;20.40;99.90
11246;DHT22;59870;50.106;8.580;2023-10-19T18:26:14;20.10;99.90
11246;DHT22;59870;50.106;8.580;2023-10-19T18:28:46;20.10;99.90
11246;DHT22;59870;50.106;8.580;2023-10-19T18:31:15;20.60;99.90
11246;DHT22;59870;50.106;8.580;2023-10-19T18:33:43;20.10;99.80
11246;DHT22;59870;50.106;8.580;2023-10-19T18:36:11;20.10;99.80